createdAt,value
2023-05-02T00:01:28.710Z,24.62
2023-05-02T00:03:59.979Z,25.04
2023-05-02T00:06:33.583Z,25.32
2023-05-02T00:09:05.601Z,25.83
2023-05-02T00:11:37.203Z,25.89
2023-05-02T00:14:08.740Z,26.32
2023-05-02T00:16:40.166Z,26.04
2023-05-02T00:19:10.968Z,26.92
2023-05-02T00:21:42.007Z,27.25
2023-05-02T00:24:13.018Z,25.70
2023-05-02T00:26:44.098Z,26.00
2023-05-02T00:29:15.104Z,27.29
2023-05-02T00:31:46.225Z,26.74
2023-05-02T00:34:17.776Z,27.58
2023-05-02T00:36:50.188Z,27.20
2023-05-02T00:39:21.598Z,26.73
2023-05-02T00:41:52.476Z,27.34
2023-05-02T00:44:24.099Z,27.18
2023-05-02T00:46:55.634Z,26.75
2023-05-02T00:49:27.237Z,27.31
2023-05-02T00:51:58.606Z,26.00
2023-05-02T00:54:30.083Z,25.80
2023-05-02T00:57:01.740Z,25.34
2023-05-02T00:59:32.719Z,26.12
2023-05-02T01:02:30.627Z,26.21
2023-05-02T01:05:05.220Z,26.87
2023-05-02T01:07:57.272Z,27.00
2023-05-02T01:11:01.981Z,27.40
2023-05-02T01:13:36.532Z,26.47
2023-05-02T01:16:08.628Z,26.86
2023-05-02T01:18:42.722Z,26.39
2023-05-02T01:21:15.089Z,26.03
2023-05-02T01:23:52.535Z,27.20
2023-05-02T01:26:35.505Z,27.92
2023-05-02T01:29:10.120Z,25.34
2023-05-02T01:31:46.694Z,25.81
2023-05-02T01:34:19.798Z,26.24
2023-05-02T01:36:53.089Z,25.41
2023-05-02T01:39:27.273Z,25.04
2023-05-02T01:41:59.670Z,25.49
2023-05-02T01:44:32.017Z,25.92
2023-05-02T01:47:05.014Z,25.30
2023-05-02T01:49:36.802Z,25.06
2023-05-02T01:52:12.320Z,26.26
2023-05-02T01:54:44.103Z,26.62
2023-05-02T01:57:16.120Z,25.08
2023-05-02T01:59:47.912Z,24.87
2023-05-02T02:02:19.574Z,25.38
2023-05-02T02:04:51.506Z,25.57
2023-05-02T02:07:23.758Z,24.96
2023-05-02T02:09:55.337Z,24.85
2023-05-02T02:12:33.575Z,24.22
2023-05-02T02:15:31.935Z,24.09
2023-05-02T02:18:04.966Z,24.71
2023-05-02T02:20:37.179Z,24.42
2023-05-02T02:23:10.322Z,24.77
2023-05-02T02:25:42.348Z,24.61
2023-05-02T02:28:13.988Z,24.59
2023-05-02T02:30:44.610Z,24.98
2023-05-02T02:33:15.480Z,24.57
2023-05-02T02:35:54.265Z,24.69
2023-05-02T02:38:25.384Z,24.46
2023-05-02T02:40:59.960Z,24.42
2023-05-02T02:44:05.753Z,24.20
2023-05-02T02:47:02.333Z,24.01
2023-05-02T02:49:58.037Z,23.88
2023-05-02T02:52:50.701Z,24.09
2023-05-02T02:55:27.113Z,24.20
2023-05-02T02:58:19.113Z,24.41
2023-05-02T03:00:51.289Z,24.11
2023-05-02T03:03:26.658Z,24.23
2023-05-02T03:05:59.178Z,24.48
2023-05-02T03:08:42.770Z,24.17
2023-05-02T03:11:19.329Z,24.09
2023-05-02T03:13:51.065Z,24.09
2023-05-02T03:16:41.594Z,24.02
2023-05-02T03:19:18.403Z,23.88
2023-05-02T03:21:51.258Z,23.78
2023-05-02T03:24:24.259Z,23.52
2023-05-02T03:27:00.656Z,23.79
2023-05-02T03:29:37.531Z,23.75
2023-05-02T03:32:09.474Z,23.43
2023-05-02T03:34:43.273Z,23.37
2023-05-02T03:37:15.888Z,23.47
2023-05-02T03:39:47.304Z,23.50
2023-05-02T03:42:18.735Z,23.40
2023-05-02T03:44:53.708Z,23.16
2023-05-02T03:47:25.337Z,23.19
2023-05-02T03:49:56.368Z,23.02
2023-05-02T03:52:28.138Z,23.07
2023-05-02T03:54:59.891Z,23.13
2023-05-02T03:57:34.228Z,22.90
2023-05-02T04:00:04.901Z,22.94
2023-05-02T04:02:42.436Z,22.89
2023-05-02T04:05:17.463Z,22.81
2023-05-02T04:07:51.516Z,22.81
2023-05-02T04:10:22.273Z,22.90
2023-05-02T04:13:00.917Z,22.58
2023-05-02T04:15:35.647Z,22.68
2023-05-02T04:18:07.678Z,22.65
2023-05-02T04:20:40.923Z,22.61
2023-05-02T04:23:12.106Z,22.58
2023-05-02T04:25:44.232Z,22.48
2023-05-02T04:28:15.452Z,22.75
2023-05-02T04:30:47.213Z,22.70
2023-05-02T04:33:19.890Z,22.52
2023-05-02T04:35:51.730Z,22.61
2023-05-02T04:38:24.854Z,22.59
2023-05-02T04:40:56.685Z,22.38
2023-05-02T04:43:36.992Z,22.46
2023-05-02T04:46:09.004Z,22.29
2023-05-02T04:48:45.381Z,22.40
2023-05-02T04:51:17.156Z,22.28
2023-05-02T04:53:52.021Z,22.46
2023-05-02T04:56:23.577Z,22.34
2023-05-02T04:58:55.174Z,22.22
2023-05-02T05:01:26.637Z,22.34
2023-05-02T05:03:58.777Z,22.21
2023-05-02T05:06:30.455Z,21.89
2023-05-02T05:09:02.351Z,21.83
2023-05-02T05:11:33.457Z,21.74
2023-05-02T05:14:05.930Z,21.70
2023-05-02T05:16:40.309Z,21.58
2023-05-02T05:19:12.772Z,21.64
2023-05-02T05:21:44.395Z,21.59
2023-05-02T05:24:18.739Z,21.56
2023-05-02T05:26:50.910Z,21.48
2023-05-02T05:29:23.944Z,21.65
2023-05-02T05:31:55.351Z,21.62
2023-05-02T05:34:28.313Z,21.60
2023-05-02T05:37:02.961Z,21.58
2023-05-02T05:39:34.872Z,21.34
2023-05-02T05:42:07.516Z,21.30
2023-05-02T05:44:42.174Z,21.32
2023-05-02T05:47:13.974Z,21.29
2023-05-02T05:49:44.978Z,21.30
2023-05-02T05:52:16.501Z,21.16
2023-05-02T05:54:48.115Z,21.08
2023-05-02T05:57:18.798Z,21.06
2023-05-02T05:59:50.041Z,21.02
2023-05-02T06:02:21.521Z,21.02
2023-05-02T06:04:52.692Z,20.97
2023-05-02T06:07:26.613Z,20.80
2023-05-02T06:09:58.596Z,20.93
2023-05-02T06:12:32.026Z,20.79
2023-05-02T06:15:03.813Z,20.70
2023-05-02T06:17:34.784Z,20.81
2023-05-02T06:20:07.010Z,20.82
2023-05-02T06:22:42.171Z,20.79
2023-05-02T06:25:13.722Z,20.65
2023-05-02T06:27:45.123Z,20.64
2023-05-02T06:30:16.808Z,20.60
2023-05-02T06:32:48.420Z,20.54
2023-05-02T06:35:19.234Z,20.40
2023-05-02T06:37:50.449Z,20.28
2023-05-02T06:40:21.512Z,20.33
2023-05-02T06:42:52.939Z,20.27
2023-05-02T06:45:24.095Z,20.24
2023-05-02T06:47:55.525Z,20.31
2023-05-02T06:50:26.933Z,20.35
2023-05-02T06:52:58.559Z,20.25
2023-05-02T06:55:29.920Z,20.18
2023-05-02T06:58:01.057Z,20.18
2023-05-02T07:00:32.765Z,20.15
2023-05-02T07:03:04.347Z,20.02
2023-05-02T07:05:35.578Z,19.90
2023-05-02T07:08:07.439Z,19.99
2023-05-02T07:10:38.817Z,20.03
2023-05-02T07:13:10.213Z,19.88
2023-05-02T07:15:42.923Z,19.76
2023-05-02T07:18:14.077Z,19.73
2023-05-02T07:20:44.987Z,19.63
2023-05-02T07:23:16.146Z,19.65
2023-05-02T07:25:47.775Z,19.61
2023-05-02T07:28:19.094Z,19.66
2023-05-02T07:30:50.463Z,19.68
2023-05-02T07:33:21.630Z,19.64
2023-05-02T07:35:53.314Z,19.52
2023-05-02T07:38:25.045Z,19.71
2023-05-02T07:40:55.928Z,19.70
2023-05-02T07:43:27.870Z,19.58
2023-05-02T07:45:59.352Z,19.57
2023-05-02T07:48:30.211Z,19.64
2023-05-02T07:51:11.967Z,19.61
2023-05-02T07:53:43.215Z,19.63
2023-05-02T07:56:16.669Z,19.55
2023-05-02T07:58:48.364Z,19.44
2023-05-02T08:01:20.115Z,19.25
2023-05-02T08:03:53.382Z,19.17
2023-05-02T08:06:24.794Z,19.14
2023-05-02T08:08:56.381Z,19.02
2023-05-02T08:11:27.578Z,19.04
2023-05-02T08:13:59.052Z,18.96
2023-05-02T08:16:30.864Z,18.93
2023-05-02T08:19:02.444Z,18.86
2023-05-02T08:21:34.081Z,18.80
2023-05-02T08:24:05.529Z,18.82
2023-05-02T08:26:36.866Z,18.81
2023-05-02T08:29:08.652Z,18.97
2023-05-02T08:31:41.522Z,19.00
2023-05-02T08:34:12.939Z,18.97
2023-05-02T08:36:43.987Z,18.99
2023-05-02T08:39:15.182Z,18.96
2023-05-02T08:41:46.605Z,18.86
2023-05-02T08:44:17.212Z,18.89
2023-05-02T08:46:48.743Z,18.90
2023-05-02T08:49:21.169Z,18.95
2023-05-02T08:51:53.283Z,18.86
2023-05-02T08:54:27.245Z,18.88
2023-05-02T08:57:01.238Z,18.88
2023-05-02T08:59:33.340Z,18.93
2023-05-02T09:02:14.886Z,19.00
2023-05-02T09:04:47.693Z,18.95
2023-05-02T09:07:18.709Z,18.88
2023-05-02T09:09:52.487Z,18.81
2023-05-02T09:12:28.955Z,18.78
2023-05-02T09:15:20.877Z,18.85
2023-05-02T09:17:52.955Z,18.83
2023-05-02T09:20:24.402Z,18.81
2023-05-02T09:22:55.904Z,18.79
2023-05-02T09:25:27.301Z,18.95
2023-05-02T09:28:02.890Z,19.02
2023-05-02T09:30:34.367Z,18.95
2023-05-02T09:33:05.766Z,18.98
2023-05-02T09:35:39.117Z,19.02
2023-05-02T09:38:22.715Z,18.93
2023-05-02T09:40:57.929Z,18.90
2023-05-02T09:43:29.343Z,18.82
2023-05-02T09:46:04.323Z,18.84
2023-05-02T09:48:53.580Z,18.76
2023-05-02T09:51:26.771Z,18.95
2023-05-02T09:53:57.942Z,18.93
2023-05-02T09:56:29.701Z,18.89
2023-05-02T09:59:17.625Z,18.90
2023-05-02T10:01:48.778Z,18.85
2023-05-02T10:04:21.051Z,18.85
2023-05-02T10:06:54.565Z,18.79
2023-05-02T10:09:26.286Z,18.68
2023-05-02T10:11:59.745Z,18.71
2023-05-02T10:14:31.418Z,18.60
2023-05-02T10:17:03.686Z,18.67
2023-05-02T10:20:13.213Z,18.59
2023-05-02T10:22:45.246Z,18.67
2023-05-02T10:25:16.505Z,18.56
2023-05-02T10:27:47.747Z,18.51
2023-05-02T10:30:19.337Z,18.60
2023-05-02T10:32:50.781Z,18.51
2023-05-02T10:35:22.526Z,18.54
2023-05-02T10:37:53.592Z,18.49
2023-05-02T10:40:24.676Z,18.55
2023-05-02T10:42:56.066Z,18.46
2023-05-02T10:45:33.576Z,18.48
2023-05-02T10:48:22.396Z,18.47
2023-05-02T10:50:56.461Z,18.45
2023-05-02T10:53:29.535Z,18.37
2023-05-02T10:56:17.548Z,18.28
2023-05-02T10:58:53.288Z,18.43
2023-05-02T11:01:28.898Z,18.35
2023-05-02T11:04:02.396Z,18.27
2023-05-02T11:07:00.546Z,18.32
2023-05-02T11:09:33.540Z,18.45
2023-05-02T11:12:07.447Z,18.38
2023-05-02T11:14:41.943Z,18.43
2023-05-02T11:17:13.707Z,18.33
2023-05-02T11:19:48.548Z,18.38
2023-05-02T11:22:23.432Z,18.28
2023-05-02T11:24:55.010Z,18.30
2023-05-02T11:27:32.594Z,18.29
2023-05-02T11:30:08.360Z,18.24
2023-05-02T11:32:54.841Z,18.19
2023-05-02T11:35:32.575Z,18.16
2023-05-02T11:38:06.083Z,18.23
2023-05-02T11:40:37.188Z,18.23
2023-05-02T11:43:20.125Z,18.22
2023-05-02T11:45:51.778Z,18.21
2023-05-02T11:48:24.871Z,18.21
2023-05-02T11:51:05.450Z,18.22
2023-05-02T11:53:43.220Z,18.31
2023-05-02T11:56:14.680Z,18.17
2023-05-02T11:58:48.383Z,18.19
2023-05-02T12:01:19.769Z,18.07
2023-05-02T12:03:53.942Z,18.11
2023-05-02T12:06:25.143Z,18.16
2023-05-02T12:09:09.644Z,18.07
2023-05-02T12:11:40.656Z,18.19
2023-05-02T12:14:12.731Z,18.10
2023-05-02T12:16:44.848Z,18.17
2023-05-02T12:19:18.109Z,18.18
2023-05-02T12:21:50.107Z,18.23
2023-05-02T12:24:20.893Z,18.31
2023-05-02T12:26:54.109Z,18.22
2023-05-02T12:29:40.598Z,18.16
2023-05-02T12:32:13.153Z,18.19
2023-05-02T12:34:44.505Z,18.07
2023-05-02T12:37:16.249Z,18.07
2023-05-02T12:39:47.672Z,17.99
2023-05-02T12:42:22.584Z,17.99
2023-05-02T12:44:54.967Z,17.91
2023-05-02T12:47:26.319Z,17.90
2023-05-02T12:50:00.626Z,17.96
2023-05-02T12:52:51.851Z,17.98
2023-05-02T12:55:28.868Z,17.96
2023-05-02T12:58:18.722Z,17.97
2023-05-02T13:00:50.154Z,17.97
2023-05-02T13:03:21.299Z,17.90
2023-05-02T13:05:56.702Z,17.89
2023-05-02T13:08:27.965Z,17.84
2023-05-02T13:10:59.209Z,17.79
2023-05-02T13:13:30.523Z,17.81
2023-05-02T13:16:02.063Z,17.69
2023-05-02T13:18:33.611Z,17.76
2023-05-02T13:21:06.596Z,17.76
2023-05-02T13:23:40.836Z,17.72
2023-05-02T13:26:13.084Z,17.82
2023-05-02T13:28:44.408Z,17.73
2023-05-02T13:31:15.884Z,17.76
2023-05-02T13:33:46.778Z,17.71
2023-05-02T13:36:18.017Z,17.71
2023-05-02T13:38:50.785Z,17.67
2023-05-02T13:41:22.988Z,17.63
2023-05-02T13:43:55.503Z,17.69
2023-05-02T13:46:27.450Z,17.54
2023-05-02T13:48:58.392Z,17.69
2023-05-02T13:51:30.158Z,17.55
2023-05-02T13:54:01.859Z,17.37
2023-05-02T13:56:33.521Z,17.42
2023-05-02T13:59:06.896Z,17.38
2023-05-02T14:01:41.867Z,17.35
2023-05-02T14:04:13.716Z,17.35
2023-05-02T14:06:45.187Z,17.27
2023-05-02T14:09:17.251Z,17.17
2023-05-02T14:11:50.233Z,17.14
2023-05-02T14:14:22.111Z,17.15
2023-05-02T14:16:53.952Z,17.32
2023-05-02T14:19:25.843Z,17.22
2023-05-02T14:21:57.023Z,17.19
2023-05-02T14:24:29.037Z,17.24
2023-05-02T14:27:00.951Z,17.13
2023-05-02T14:29:36.373Z,17.09
2023-05-02T14:32:08.124Z,17.21
2023-05-02T14:34:39.718Z,17.18
2023-05-02T14:37:11.057Z,17.02
2023-05-02T14:39:43.937Z,17.03
2023-05-02T14:42:15.321Z,17.05
2023-05-02T14:44:46.447Z,17.06
2023-05-02T14:47:18.306Z,16.99
2023-05-02T14:49:49.852Z,17.04
2023-05-02T14:52:21.091Z,16.97
2023-05-02T14:54:52.587Z,17.03
2023-05-02T14:57:25.248Z,16.86
2023-05-02T14:59:57.286Z,16.78
2023-05-02T15:02:28.834Z,16.88
2023-05-02T15:05:00.036Z,16.79
2023-05-02T15:07:33.960Z,16.77
2023-05-02T15:10:04.898Z,16.86
2023-05-02T15:12:36.394Z,16.69
2023-05-02T15:15:08.164Z,16.78
2023-05-02T15:17:40.570Z,16.59
2023-05-02T15:20:13.103Z,16.63
2023-05-02T15:22:44.641Z,16.59
2023-05-02T15:25:17.479Z,16.54
2023-05-02T15:27:48.979Z,16.53
2023-05-02T15:30:23.229Z,16.45
2023-05-02T15:32:55.150Z,16.47
2023-05-02T15:35:25.918Z,16.68
2023-05-02T15:37:57.857Z,16.59
2023-05-02T15:40:29.851Z,16.59
2023-05-02T15:43:01.180Z,16.64
2023-05-02T15:45:33.005Z,16.65
2023-05-02T15:48:03.670Z,16.72
2023-05-02T15:50:35.014Z,16.76
2023-05-02T15:53:06.510Z,16.79
2023-05-02T15:55:37.858Z,16.76
2023-05-02T15:58:10.646Z,16.77
2023-05-02T16:00:41.778Z,16.74
2023-05-02T16:03:16.906Z,16.71
2023-05-02T16:05:48.155Z,16.75
2023-05-02T16:08:19.540Z,16.72
2023-05-02T16:10:51.003Z,16.74
2023-05-02T16:13:22.880Z,16.73
2023-05-02T16:15:54.761Z,16.74
2023-05-02T16:18:29.650Z,16.75
2023-05-02T16:21:01.044Z,16.85
2023-05-02T16:23:32.556Z,16.81
2023-05-02T16:26:04.750Z,16.96
2023-05-02T16:28:36.773Z,16.99
2023-05-02T16:31:12.640Z,17.00
2023-05-02T16:33:44.397Z,17.01
2023-05-02T16:36:16.426Z,17.01
2023-05-02T16:38:48.075Z,16.91
2023-05-02T16:41:19.362Z,16.91
2023-05-02T16:43:52.716Z,16.94
2023-05-02T16:46:23.864Z,16.96
2023-05-02T16:48:55.313Z,17.01
2023-05-02T16:51:26.719Z,17.02
2023-05-02T16:53:57.949Z,16.98
2023-05-02T16:56:30.125Z,16.96
2023-05-02T16:59:01.425Z,16.93
2023-05-02T17:01:32.900Z,16.91
2023-05-02T17:04:03.508Z,16.95
2023-05-02T17:06:35.651Z,16.91
2023-05-02T17:09:07.701Z,16.86
2023-05-02T17:11:38.856Z,16.97
2023-05-02T17:14:10.417Z,16.82
2023-05-02T17:16:44.928Z,16.96
2023-05-02T17:19:16.392Z,16.95
2023-05-02T17:21:48.010Z,17.00
2023-05-02T17:24:19.328Z,16.96
2023-05-02T17:26:52.833Z,17.01
2023-05-02T17:29:24.078Z,17.02
2023-05-02T17:31:55.370Z,16.99
2023-05-02T17:34:30.058Z,17.00
2023-05-02T17:37:01.388Z,16.97
2023-05-02T17:39:32.363Z,16.94
2023-05-02T17:42:04.084Z,16.89
2023-05-02T17:44:37.570Z,16.95
2023-05-02T17:47:09.987Z,16.97
2023-05-02T17:49:41.453Z,16.98
2023-05-02T17:52:12.692Z,16.95
2023-05-02T17:54:44.189Z,17.05
2023-05-02T17:57:16.166Z,17.12
2023-05-02T17:59:47.360Z,17.11
2023-05-02T18:02:19.235Z,17.12
2023-05-02T18:04:51.296Z,17.12
2023-05-02T18:07:25.381Z,17.20
2023-05-02T18:09:56.801Z,17.21
2023-05-02T18:12:28.037Z,17.22
2023-05-02T18:14:59.164Z,17.23
2023-05-02T18:17:30.860Z,17.22
2023-05-02T18:20:02.508Z,17.24
2023-05-02T18:22:35.600Z,17.18
2023-05-02T18:25:07.799Z,17.26
2023-05-02T18:27:39.711Z,17.24
2023-05-02T18:30:11.711Z,17.26
2023-05-02T18:32:43.130Z,17.28
2023-05-02T18:35:14.540Z,17.24
2023-05-02T18:37:45.994Z,17.27
2023-05-02T18:40:17.930Z,17.33
2023-05-02T18:42:49.101Z,17.36
2023-05-02T18:45:20.739Z,17.37
2023-05-02T18:47:52.476Z,17.36
2023-05-02T18:50:24.381Z,17.44
2023-05-02T18:52:55.816Z,17.50
2023-05-02T18:55:27.440Z,17.48
2023-05-02T18:57:58.621Z,17.51
2023-05-02T19:00:36.298Z,17.55
2023-05-02T19:03:08.238Z,17.56
2023-05-02T19:05:41.780Z,17.48
2023-05-02T19:08:13.639Z,17.46
2023-05-02T19:10:44.224Z,17.50
2023-05-02T19:13:16.140Z,17.53
2023-05-02T19:15:47.871Z,17.55
2023-05-02T19:18:19.450Z,17.51
2023-05-02T19:20:51.154Z,17.53
2023-05-02T19:23:21.765Z,17.52
2023-05-02T19:25:53.018Z,17.63
2023-05-02T19:28:25.403Z,17.60
2023-05-02T19:30:56.975Z,17.70
2023-05-02T19:33:28.604Z,17.73
2023-05-02T19:35:59.973Z,17.79
2023-05-02T19:38:31.232Z,17.87
2023-05-02T19:41:03.749Z,17.89
2023-05-02T19:43:36.672Z,17.98
2023-05-02T19:46:08.562Z,18.06
2023-05-02T19:48:39.417Z,18.08
2023-05-02T19:51:10.881Z,18.15
2023-05-02T19:53:42.111Z,18.15
2023-05-02T19:56:14.852Z,18.26
2023-05-02T19:58:45.864Z,18.33
2023-05-02T20:01:17.160Z,18.40
2023-05-02T20:03:48.778Z,18.37
2023-05-02T20:06:20.161Z,18.39
2023-05-02T20:08:52.587Z,18.44
2023-05-02T20:11:23.275Z,18.47
2023-05-02T20:13:55.915Z,18.53
2023-05-02T20:16:27.709Z,18.62
2023-05-02T20:18:58.520Z,18.67
2023-05-02T20:21:30.061Z,18.72
2023-05-02T20:24:01.267Z,18.84
2023-05-02T20:26:35.030Z,18.90
2023-05-02T20:29:09.105Z,18.98
2023-05-02T20:31:41.610Z,19.42
2023-05-02T20:34:12.886Z,19.37
2023-05-02T20:36:44.349Z,19.36
2023-05-02T20:39:17.468Z,19.43
2023-05-02T20:41:51.096Z,19.40
2023-05-02T20:44:23.953Z,19.33
2023-05-02T20:46:55.622Z,19.33
2023-05-02T20:49:27.341Z,19.39
2023-05-02T20:51:58.815Z,19.45
2023-05-02T20:54:29.739Z,19.60
2023-05-02T20:57:01.350Z,19.57
2023-05-02T20:59:33.493Z,19.61
2023-05-02T21:02:04.962Z,19.61
2023-05-02T21:04:36.832Z,19.67
2023-05-02T21:07:09.188Z,19.70
2023-05-02T21:09:40.597Z,19.89
2023-05-02T21:12:12.351Z,19.83
2023-05-02T21:14:43.717Z,19.82
2023-05-02T21:17:15.008Z,20.00
2023-05-02T21:19:46.667Z,20.08
2023-05-02T21:22:17.791Z,20.16
2023-05-02T21:24:51.261Z,20.09
2023-05-02T21:27:22.921Z,20.08
2023-05-02T21:29:55.020Z,20.30
2023-05-02T21:32:27.339Z,20.56
2023-05-02T21:35:00.553Z,20.48
2023-05-02T21:37:34.972Z,20.45
2023-05-02T21:40:07.771Z,20.59
2023-05-02T21:42:38.953Z,20.50
2023-05-02T21:45:11.131Z,20.58
2023-05-02T21:47:42.677Z,20.61
2023-05-02T21:50:13.665Z,20.48
2023-05-02T21:52:48.241Z,20.59
2023-05-02T21:55:19.886Z,20.62
2023-05-02T21:57:51.371Z,20.64
2023-05-02T22:00:23.213Z,20.86
2023-05-02T22:02:54.750Z,20.76
2023-05-02T22:05:26.174Z,20.91
2023-05-02T22:07:57.610Z,20.94
2023-05-02T22:10:29.123Z,20.90
2023-05-02T22:13:00.596Z,20.94
2023-05-02T22:15:32.550Z,20.93
2023-05-02T22:18:03.514Z,20.98
2023-05-02T22:20:35.055Z,20.92
2023-05-02T22:23:06.853Z,21.10
2023-05-02T22:25:38.404Z,20.99
2023-05-02T22:28:12.982Z,21.12
2023-05-02T22:30:45.064Z,20.97
2023-05-02T22:33:16.128Z,21.12
2023-05-02T22:35:47.200Z,21.17
2023-05-02T22:38:18.508Z,20.99
2023-05-02T22:40:49.330Z,21.12
2023-05-02T22:43:20.820Z,21.08
2023-05-02T22:45:52.582Z,20.92
2023-05-02T22:48:23.783Z,21.11
2023-05-02T22:50:54.685Z,21.17
2023-05-02T22:53:27.599Z,21.24
2023-05-02T22:55:58.657Z,21.68
2023-05-02T22:58:30.164Z,21.84
2023-05-02T23:01:01.214Z,22.09
2023-05-02T23:03:32.890Z,21.91
2023-05-02T23:06:04.326Z,21.96
2023-05-02T23:08:35.184Z,22.47
2023-05-02T23:11:06.664Z,22.37
2023-05-02T23:13:37.464Z,22.76
2023-05-02T23:16:09.023Z,22.61
2023-05-02T23:18:40.457Z,22.30
2023-05-02T23:21:18.169Z,22.43
2023-05-02T23:23:49.172Z,22.42
2023-05-02T23:26:20.792Z,22.65
2023-05-02T23:28:52.193Z,22.36
2023-05-02T23:31:24.588Z,22.54
2023-05-02T23:33:57.062Z,22.36
2023-05-02T23:36:28.667Z,22.28
2023-05-02T23:39:00.248Z,21.92
2023-05-02T23:41:31.491Z,21.83
2023-05-02T23:44:02.715Z,21.78
2023-05-02T23:46:34.084Z,21.87
2023-05-02T23:49:05.205Z,21.83
2023-05-02T23:51:36.515Z,21.68
2023-05-02T23:54:08.883Z,21.67
2023-05-02T23:56:40.095Z,21.63
2023-05-02T23:59:12.650Z,21.65
